createdAt,value
2018-08-19T00:01:12.259Z,27
2018-08-19T00:06:14.716Z,28
2018-08-19T00:11:17.227Z,23
2018-08-19T00:16:19.635Z,28
2018-08-19T00:21:22.276Z,24
2018-08-19T00:26:24.603Z,29
2018-08-19T00:31:27.092Z,25
2018-08-19T00:36:29.549Z,29
2018-08-19T00:41:31.930Z,31
2018-08-19T00:46:34.417Z,25
2018-08-19T00:51:36.844Z,26
2018-08-19T00:56:39.344Z,26
2018-08-19T01:01:41.775Z,26
2018-08-19T01:06:44.439Z,26
2018-08-19T01:11:46.708Z,28
2018-08-19T01:16:49.149Z,29
2018-08-19T01:21:51.600Z,26
2018-08-19T01:26:54.047Z,24
2018-08-19T01:31:57.445Z,28
2018-08-19T01:36:59.006Z,27
2018-08-19T01:42:01.712Z,26
2018-08-19T01:47:03.917Z,28
2018-08-19T01:52:06.354Z,27
2018-08-19T01:57:08.831Z,29
2018-08-19T02:02:11.254Z,31
2018-08-19T02:07:13.707Z,28
2018-08-19T02:12:16.372Z,26
2018-08-19T02:17:18.646Z,26
2018-08-19T02:22:21.105Z,25
2018-08-19T02:27:23.790Z,27
2018-08-19T02:32:26.034Z,27
2018-08-19T02:37:28.475Z,26
2018-08-19T02:42:31.023Z,25
2018-08-19T02:47:33.469Z,27
2018-08-19T02:52:35.836Z,24
2018-08-19T02:57:38.565Z,22
2018-08-19T03:02:40.746Z,24
2018-08-19T03:07:43.252Z,24
2018-08-19T03:12:45.802Z,24
2018-08-19T03:17:48.113Z,27
2018-08-19T03:22:50.623Z,27
2018-08-19T03:27:53.039Z,22
2018-08-19T03:32:55.499Z,21
2018-08-19T03:37:58.104Z,24
2018-08-19T03:43:00.456Z,24
2018-08-19T03:48:02.874Z,28
2018-08-19T03:53:05.519Z,27
2018-08-19T03:58:07.874Z,35
2018-08-19T04:03:10.299Z,25
2018-08-19T04:08:12.720Z,24
2018-08-19T04:13:15.863Z,26
2018-08-19T04:18:17.696Z,24
2018-08-19T04:23:20.150Z,25
2018-08-19T04:28:22.819Z,22
2018-08-19T04:33:25.177Z,23
2018-08-19T04:38:28.003Z,22
2018-08-19T04:43:29.968Z,22
2018-08-19T04:48:32.399Z,22
2018-08-19T04:53:34.845Z,20
2018-08-19T04:58:37.306Z,19
2018-08-19T05:03:40.294Z,19
2018-08-19T05:08:42.218Z,19
2018-08-19T05:13:44.682Z,16
2018-08-19T05:18:47.129Z,16
2018-08-19T05:23:50.310Z,12
2018-08-19T05:28:52.099Z,12
2018-08-19T05:33:54.507Z,13
2018-08-19T05:38:56.968Z,11
2018-08-19T05:43:59.608Z,11
2018-08-19T05:49:02.134Z,10
2018-08-19T05:54:04.748Z,11
2018-08-19T05:59:06.794Z,11
2018-08-19T06:04:09.668Z,11
2018-08-19T06:09:11.796Z,11
2018-08-19T06:14:14.751Z,13
2018-08-19T06:19:16.919Z,12
2018-08-19T06:24:19.215Z,12
2018-08-19T06:29:21.964Z,9
2018-08-19T06:34:24.033Z,10
2018-08-19T06:39:26.509Z,10
2018-08-19T06:44:28.975Z,9
2018-08-19T06:49:31.601Z,10
2018-08-19T06:54:33.856Z,10
2018-08-19T06:59:36.313Z,9
2018-08-19T07:04:38.798Z,9
2018-08-19T07:09:41.223Z,10
2018-08-19T07:14:43.707Z,10
2018-08-19T07:19:46.158Z,10
2018-08-19T07:24:48.618Z,11
2018-08-19T07:29:51.122Z,11
2018-08-19T07:34:53.549Z,10
2018-08-19T07:39:55.990Z,11
2018-08-19T07:44:58.453Z,10
2018-08-19T07:50:00.958Z,9
2018-08-19T07:55:03.400Z,8
2018-08-19T08:00:06.037Z,10
2018-08-19T08:05:08.540Z,11
2018-08-19T08:10:11.161Z,11
2018-08-19T08:15:13.369Z,10
2018-08-19T08:20:15.747Z,9
2018-08-19T08:25:18.808Z,10
2018-08-19T08:30:20.692Z,10
2018-08-19T08:35:23.103Z,8
2018-08-19T08:40:25.511Z,9
2018-08-19T08:45:28.045Z,10
2018-08-19T08:50:30.466Z,8
2018-08-19T08:55:32.895Z,8
2018-08-19T09:00:35.369Z,10
2018-08-19T09:05:37.855Z,10
2018-08-19T09:10:40.373Z,12
2018-08-19T09:15:42.822Z,10
2018-08-19T09:20:45.616Z,10
2018-08-19T09:25:47.789Z,9
2018-08-19T09:30:50.272Z,11
2018-08-19T09:35:52.892Z,8
2018-08-19T09:40:55.124Z,8
2018-08-19T09:45:57.505Z,9
2018-08-19T09:50:59.979Z,8
